Terminal Aerodrome Forecast
Issued by NWS

Current Version | Previous Version | Text Only | Print | Product List | Glossary On
Versions: 1 2 3 4 5 6 7 8 9 10 11 12 13 14 15 16
000
FTUS46 KLOX 240200 AAA
TAFSBP
TAF AMD
KSBP 240211Z 2402/2424 32020G28KT P6SM SKC
     FM240300 32012KT P6SM SKC
     FM240500 31006KT P6SM SKC
     FM241000 VRB03KT 6SM BR SCT004
     FM241500 32008KT P6SM SKC
     FM241800 31012KT P6SM SKC
     FM242000 31018G28KT P6SM SKC=

USA.gov is the U.S. government's official web portal to all federal, state and local government web resources and services.